Time;durP1;ratioP1;P1;durP2;ratioP2;P2;SDS_P1;SDS_P2;PMS_P1;PMS_P2;Temp;Humidity;BMP_temperature;BMP_pressure;BME280_temperature;BME280_humidity;BME280_pressure;Samples;Min_cycle;Max_cycle;Signal;HPM_P1;HPM_P2
2022/08/13 00:00:50;;;;;;;;;;;;;;;24.42;51.07;99284.50;3137961;28;19921;-62
2022/08/13 00:02:22;;;;;;;;;;;;;;;24.41;51.41;99280.19;3140011;28;19921;-63
2022/08/13 00:03:55;;;;;;;;;;;;;;;24.40;51.32;99284.69;3143996;28;19924;-63
2022/08/13 00:05:27;;;;;;;;;;;;;;;24.40;51.18;99279.38;3144644;28;20415;-63
2022/08/13 00:07:07;;;;;;;;;;;;;;;24.39;50.85;99276.88;3146099;28;19920;-64
2022/08/13 00:08:40;;;;;;;;;;;;;;;24.37;50.74;99274.34;3134345;28;19979;-63
2022/08/13 00:10:20;;;;;;;;;;;;;;;24.37;51.06;99271.69;3137404;28;19920;-62
2022/08/13 00:13:43;;;;;;;;;;;;;;;24.31;51.18;99267.06;3143777;28;19925;-62
2022/08/13 00:15:16;;;;;;;;;;;;;;;24.28;50.86;99272.72;3139369;28;19924;-63
2022/08/13 00:16:46;;;;;;;;;;;;;;;24.22;50.95;99260.94;3144740;28;19928;-62
2022/08/13 00:18:19;;;;;;;;;;;;;;;24.21;50.98;99264.59;3145131;28;19920;-63
2022/08/13 00:19:53;;;;;;;;;;;;;;;24.20;50.74;99254.13;3145404;28;20374;-64
2022/08/13 00:21:25;;;;;;;;;;;;;;;24.19;50.51;99260.44;3144944;28;19924;-64
2022/08/13 00:22:56;;;;;;;;;;;;;;;24.14;50.60;99263.63;3137742;28;19939;-63
2022/08/13 00:24:29;;;;;;;;;;;;;;;24.12;50.29;99259.47;3147283;28;19927;-64
2022/08/13 00:26:01;;;;;;;;;;;;;;;24.09;50.51;99260.63;3147091;28;20030;-63
2022/08/13 00:27:32;;;;;;;;;;;;;;;24.03;50.18;99254.16;3141463;28;19950;-63
2022/08/13 00:29:04;;;;;;;;;;;;;;;23.97;50.37;99251.34;3136332;28;19947;-64
2022/08/13 00:30:36;;;;;;;;;;;;;;;23.91;50.08;99246.72;3139618;28;19935;-63
2022/08/13 00:32:08;;;;;;;;;;;;;;;23.87;50.10;99251.53;3142216;28;19924;-64
2022/08/13 00:33:39;;;;;;;;;;;;;;;23.82;50.15;99254.69;3143052;28;19935;-64
2022/08/13 00:35:12;;;;;;;;;;;;;;;23.79;50.27;99256.84;3143420;28;20292;-64
2022/08/13 00:36:44;;;;;;;;;;;;;;;23.75;50.42;99251.06;3144108;28;19931;-63
2022/08/13 00:38:17;;;;;;;;;;;;;;;23.74;50.30;99245.88;3144642;28;19924;-64
2022/08/13 00:39:49;;;;;;;;;;;;;;;23.72;50.29;99247.88;3145523;28;20011;-64
2022/08/13 00:43:06;;;;;;;;;;;;;;;23.69;50.12;99248.19;3128556;28;19920;-64
2022/08/13 00:44:39;;;;;;;;;;;;;;;23.66;50.23;99245.84;3135331;28;19947;-64
2022/08/13 00:46:13;;;;;;;;;;;;;;;23.63;50.31;99249.66;3139582;28;19935;-64
2022/08/13 00:49:31;;;;;;;;;;;;;;;23.54;50.70;99253.31;3109720;28;19925;-64
2022/08/13 00:51:06;;;;;;;;;;;;;;;23.49;50.99;99250.38;3139573;28;19943;-64
2022/08/13 00:52:40;;;;;;;;;;;;;;;23.45;51.24;99249.00;3138639;28;19987;-64
2022/08/13 00:54:13;;;;;;;;;;;;;;;23.42;51.16;99246.69;3141792;28;19920;-65
2022/08/13 00:55:48;;;;;;;;;;;;;;;23.36;51.39;99242.84;3142594;28;20280;-64
2022/08/13 00:57:19;;;;;;;;;;;;;;;23.32;51.31;99241.53;3142527;28;19928;-64
2022/08/13 00:58:52;;;;;;;;;;;;;;;23.31;51.40;99245.19;3138720;28;19932;-64
2022/08/13 01:00:25;;;;;;;;;;;;;;;23.28;51.45;99238.38;3135247;28;20380;-64
2022/08/13 01:01:57;;;;;;;;;;;;;;;23.27;51.59;99238.53;3147223;28;19931;-64
2022/08/13 01:03:30;;;;;;;;;;;;;;;23.26;51.50;99240.38;3148984;28;19921;-64
2022/08/13 01:05:02;;;;;;;;;;;;;;;23.26;51.29;99243.03;3148757;28;20396;-64
2022/08/13 01:06:35;;;;;;;;;;;;;;;23.25;51.45;99237.84;3145665;28;19924;-63
2022/08/13 01:08:07;;;;;;;;;;;;;;;23.25;51.25;99244.03;3140539;28;20010;-63
2022/08/13 01:09:39;;;;;;;;;;;;;;;23.24;51.12;99237.03;3139874;28;19921;-63
2022/08/13 01:11:11;;;;;;;;;;;;;;;23.25;51.46;99241.38;3147309;28;19931;-63
2022/08/13 01:12:45;;;;;;;;;;;;;;;23.25;51.24;99238.72;3143787;28;19924;-63
2022/08/13 01:14:16;;;;;;;;;;;;;;;23.25;51.22;99241.38;3145016;28;19920;-63
2022/08/13 01:15:50;;;;;;;;;;;;;;;23.26;50.99;99237.72;3149406;28;19920;-64
2022/08/13 01:17:22;;;;;;;;;;;;;;;23.27;50.91;99239.34;3148989;28;19920;-64
2022/08/13 01:18:53;;;;;;;;;;;;;;;23.26;51.18;99236.88;3149385;28;19920;-64
2022/08/13 01:20:27;;;;;;;;;;;;;;;23.24;51.28;99242.34;3142855;28;20116;-64
2022/08/13 01:22:00;;;;;;;;;;;;;;;23.23;51.22;99238.03;3140371;28;19924;-63
2022/08/13 01:23:32;;;;;;;;;;;;;;;23.23;51.39;99242.53;3139303;28;19925;-64
2022/08/13 01:25:05;;;;;;;;;;;;;;;23.20;51.42;99233.06;3144669;28;19921;-63
2022/08/13 01:26:37;;;;;;;;;;;;;;;23.20;51.55;99238.38;3142146;28;19927;-64
2022/08/13 01:28:08;;;;;;;;;;;;;;;23.17;51.72;99244.00;3145703;28;19921;-64
2022/08/13 01:29:40;;;;;;;;;;;;;;;23.16;51.50;99243.19;3137312;28;20063;-64
2022/08/13 01:31:14;;;;;;;;;;;;;;;23.16;51.56;99237.06;3147658;28;19920;-64
2022/08/13 01:32:45;;;;;;;;;;;;;;;23.13;51.89;99240.84;3147806;28;20291;-64
2022/08/13 01:34:18;;;;;;;;;;;;;;;23.12;51.68;99241.00;3146899;28;20009;-64
2022/08/13 01:35:49;;;;;;;;;;;;;;;23.09;52.00;99244.81;3147568;28;19981;-63
2022/08/13 01:37:22;;;;;;;;;;;;;;;23.07;51.92;99240.66;3148099;28;19932;-64
2022/08/13 01:38:57;;;;;;;;;;;;;;;23.07;51.63;99243.31;3148448;28;19993;-64
2022/08/13 01:40:30;;;;;;;;;;;;;;;23.06;51.71;99234.53;3147554;28;20232;-64
2022/08/13 01:42:02;;;;;;;;;;;;;;;23.06;51.73;99239.00;3130830;28;19921;-64
2022/08/13 01:43:35;;;;;;;;;;;;;;;23.04;51.51;99238.31;3144282;28;19935;-64
2022/08/13 01:45:07;;;;;;;;;;;;;;;23.04;51.77;99233.88;3137459;28;19925;-64
2022/08/13 01:50:31;;;;;;;;;;;;;;;23.07;51.33;99240.66;3131849;28;19920;-64
2022/08/13 01:52:03;;;;;;;;;;;;;;;23.06;51.60;99229.22;3145388;28;19921;-64
2022/08/13 01:53:36;;;;;;;;;;;;;;;23.05;51.65;99235.53;3146067;28;20006;-64
2022/08/13 01:55:08;;;;;;;;;;;;;;;23.07;51.56;99235.34;3146763;28;19928;-64
2022/08/13 01:56:40;;;;;;;;;;;;;;;23.07;51.27;99228.22;3148443;28;19935;-64
2022/08/13 01:58:13;;;;;;;;;;;;;;;23.07;51.49;99238.84;3147859;28;19927;-64
2022/08/13 01:59:44;;;;;;;;;;;;;;;23.07;51.57;99232.69;3139729;28;19931;-64
2022/08/13 02:01:15;;;;;;;;;;;;;;;23.05;51.71;99237.34;3146133;28;20000;-63
2022/08/13 02:02:48;;;;;;;;;;;;;;;23.00;51.89;99237.81;3146587;28;19943;-63
2022/08/13 02:04:20;;;;;;;;;;;;;;;22.96;52.29;99236.50;3137606;28;19932;-64
2022/08/13 02:05:52;;;;;;;;;;;;;;;22.91;52.49;99239.59;3142938;28;19935;-64
2022/08/13 02:07:24;;;;;;;;;;;;;;;22.89;52.56;99228.34;3143792;28;19960;-64
2022/08/13 02:08:58;;;;;;;;;;;;;;;22.88;52.40;99231.97;3137197;28;20006;-64
2022/08/13 02:10:29;;;;;;;;;;;;;;;22.86;52.74;99231.28;3147700;28;20020;-63
2022/08/13 02:12:01;;;;;;;;;;;;;;;22.82;53.21;99224.66;3147795;28;19931;-64
2022/08/13 02:13:33;;;;;;;;;;;;;;;22.76;54.25;99224.47;3141812;28;19937;-62
2022/08/13 02:15:06;;;;;;;;;;;;;;;22.67;54.93;99227.09;3140083;28;19924;-63
2022/08/13 02:16:38;;;;;;;;;;;;;;;22.65;54.84;99223.75;3143181;28;19921;-63
2022/08/13 02:18:17;;;;;;;;;;;;;;;22.61;55.41;99226.91;3143152;28;19944;-63
2022/08/13 02:19:49;;;;;;;;;;;;;;;22.53;56.12;99233.00;3143854;28;19921;-63
2022/08/13 02:21:22;;;;;;;;;;;;;;;22.47;56.20;99226.50;3145005;28;19924;-63
2022/08/13 02:22:54;;;;;;;;;;;;;;;22.42;56.87;99227.97;3138536;28;20352;-63
2022/08/13 02:24:27;;;;;;;;;;;;;;;22.39;56.84;99229.16;3146599;28;19965;-62
2022/08/13 02:25:59;;;;;;;;;;;;;;;22.38;56.91;99232.78;3147047;28;19931;-62
2022/08/13 02:27:31;;;;;;;;;;;;;;;22.38;57.11;99227.47;3134412;28;19925;-63
2022/08/13 02:29:04;;;;;;;;;;;;;;;22.35;57.15;99227.78;3138423;28;20065;-63
2022/08/13 02:30:35;;;;;;;;;;;;;;;22.39;56.92;99228.28;3144596;28;19929;-63
2022/08/13 02:32:07;;;;;;;;;;;;;;;22.41;56.62;99226.31;3147703;28;19932;-63
2022/08/13 02:33:39;;;;;;;;;;;;;;;22.44;56.25;99232.13;3148430;28;19920;-63
2022/08/13 02:35:11;;;;;;;;;;;;;;;22.45;56.32;99228.50;3143036;28;19921;-63
2022/08/13 02:36:44;;;;;;;;;;;;;;;22.47;56.46;99226.50;3136820;28;20006;-63
2022/08/13 02:38:16;;;;;;;;;;;;;;;22.46;56.74;99232.81;3144063;28;20376;-63
2022/08/13 02:39:49;;;;;;;;;;;;;;;22.47;56.79;99234.47;3144189;28;20348;-63
2022/08/13 02:41:39;;;;;;;;;;;;;;;22.43;56.61;99216.38;3136805;28;19979;-63
2022/08/13 02:43:10;;;;;;;;;;;;;;;22.51;56.51;99227.03;3145541;28;20023;-63
2022/08/13 02:44:42;;;;;;;;;;;;;;;22.53;56.34;99229.53;3136864;28;19920;-63
2022/08/13 02:46:14;;;;;;;;;;;;;;;22.54;56.44;99233.81;3132461;28;19925;-63
2022/08/13 02:47:47;;;;;;;;;;;;;;;22.54;56.52;99229.38;3134954;28;19932;-63
2022/08/13 02:49:21;;;;;;;;;;;;;;;22.55;56.52;99228.38;3143202;28;19936;-63
2022/08/13 02:50:54;;;;;;;;;;;;;;;22.55;56.84;99238.16;3140376;28;20019;-63
2022/08/13 02:52:28;;;;;;;;;;;;;;;22.53;56.95;99232.19;3141697;28;20267;-63
2022/08/13 02:54:00;;;;;;;;;;;;;;;22.51;57.34;99242.97;3146887;28;19920;-64
2022/08/13 02:55:33;;;;;;;;;;;;;;;22.51;57.54;99247.41;3147584;28;20372;-64
2022/08/13 02:57:04;;;;;;;;;;;;;;;22.47;58.14;99245.09;3144637;28;19950;-64
2022/08/13 02:58:38;;;;;;;;;;;;;;;22.47;57.73;99253.03;3136591;28;20090;-64
2022/08/13 03:00:11;;;;;;;;;;;;;;;22.44;58.42;99258.66;3135592;28;19959;-64
2022/08/13 03:01:44;;;;;;;;;;;;;;;22.44;58.59;99253.34;3143891;28;19924;-64
2022/08/13 03:03:16;;;;;;;;;;;;;;;22.40;59.19;99251.19;3143680;28;19967;-64
2022/08/13 03:04:47;;;;;;;;;;;;;;;22.34;59.72;99251.84;3140501;28;19931;-64
2022/08/13 03:06:19;;;;;;;;;;;;;;;22.32;59.67;99254.63;3139091;28;19931;-63
2022/08/13 03:07:51;;;;;;;;;;;;;;;22.31;59.70;99258.28;3139639;28;19925;-63
2022/08/13 03:09:22;;;;;;;;;;;;;;;22.32;59.47;99256.47;3136264;28;19943;-64
2022/08/13 03:10:56;;;;;;;;;;;;;;;22.32;59.58;99251.97;3143886;28;19947;-64
2022/08/13 03:12:29;;;;;;;;;;;;;;;22.34;59.40;99262.44;3144095;28;20011;-63
2022/08/13 03:14:03;;;;;;;;;;;;;;;22.33;59.45;99256.31;3142125;28;20285;-64
2022/08/13 03:15:34;;;;;;;;;;;;;;;22.33;59.74;99256.31;3143631;28;19989;-64
2022/08/13 03:17:06;;;;;;;;;;;;;;;22.31;60.10;99255.63;3144384;28;19924;-64
2022/08/13 03:18:38;;;;;;;;;;;;;;;22.29;60.01;99260.25;3143715;28;19931;-64
2022/08/13 03:20:15;;;;;;;;;;;;;;;22.27;60.25;99259.56;3144767;28;19920;-64
2022/08/13 03:21:47;;;;;;;;;;;;;;;22.24;60.12;99257.22;3141308;28;19980;-64
2022/08/13 03:23:18;;;;;;;;;;;;;;;22.25;60.01;99262.38;3139625;28;19920;-63
2022/08/13 03:24:50;;;;;;;;;;;;;;;22.24;59.97;99258.09;3146830;28;20082;-64
2022/08/13 03:26:24;;;;;;;;;;;;;;;22.29;59.51;99262.91;3147239;28;19920;-64
2022/08/13 03:27:55;;;;;;;;;;;;;;;22.31;59.14;99258.28;3147772;28;19938;-63
2022/08/13 03:29:27;;;;;;;;;;;;;;;22.32;59.43;99257.28;3137873;28;19932;-64
2022/08/13 03:30:59;;;;;;;;;;;;;;;22.35;58.84;99259.63;3142776;28;19963;-64
2022/08/13 03:32:35;;;;;;;;;;;;;;;22.36;59.04;99258.66;3141653;28;20003;-64
2022/08/13 03:34:06;;;;;;;;;;;;;;;22.37;58.87;99260.31;3142596;28;19920;-63
2022/08/13 03:35:38;;;;;;;;;;;;;;;22.38;58.98;99258.47;3143178;28;19920;-64
2022/08/13 03:37:10;;;;;;;;;;;;;;;22.40;58.70;99256.50;3143628;28;19924;-63
2022/08/13 03:38:42;;;;;;;;;;;;;;;22.41;58.60;99253.69;3144497;28;19925;-64
2022/08/13 03:40:15;;;;;;;;;;;;;;;22.43;58.30;99266.81;3142877;28;19990;-63
2022/08/13 03:41:48;;;;;;;;;;;;;;;22.43;58.77;99262.31;3135275;28;19925;-63
2022/08/13 03:43:19;;;;;;;;;;;;;;;22.43;58.78;99261.50;3145366;28;20077;-64
2022/08/13 03:44:51;;;;;;;;;;;;;;;22.46;58.69;99255.88;3137110;28;19925;-63
2022/08/13 03:46:23;;;;;;;;;;;;;;;22.45;58.69;99257.69;3139332;28;19925;-63
2022/08/13 03:47:55;;;;;;;;;;;;;;;22.47;58.58;99263.66;3135500;28;19924;-64
2022/08/13 03:49:26;;;;;;;;;;;;;;;22.47;58.31;99262.81;3145477;28;19924;-64
2022/08/13 03:51:00;;;;;;;;;;;;;;;22.49;58.42;99264.34;3147925;28;19943;-64
2022/08/13 03:52:33;;;;;;;;;;;;;;;22.52;58.37;99267.66;3141037;28;20287;-64
2022/08/13 03:54:05;;;;;;;;;;;;;;;22.49;58.95;99264.34;3141229;28;20340;-64
2022/08/13 03:55:39;;;;;;;;;;;;;;;22.46;59.08;99272.63;3141185;28;19932;-64
2022/08/13 03:57:13;;;;;;;;;;;;;;;22.43;59.18;99275.59;3135539;28;20299;-64
2022/08/13 03:58:46;;;;;;;;;;;;;;;22.40;59.23;99267.94;3129195;28;20320;-64
2022/08/13 04:00:16;;;;;;;;;;;;;;;22.33;59.44;99274.88;3135073;28;20371;-64
2022/08/13 04:01:51;;;;;;;;;;;;;;;22.30;59.47;99277.81;3135336;28;19931;-64
2022/08/13 04:03:23;;;;;;;;;;;;;;;22.24;59.75;99275.78;3145728;28;20317;-64
2022/08/13 04:04:54;;;;;;;;;;;;;;;22.16;59.90;99270.44;3145007;28;19928;-64
2022/08/13 04:06:26;;;;;;;;;;;;;;;22.09;60.36;99277.34;3145114;28;20481;-64
2022/08/13 04:07:57;;;;;;;;;;;;;;;21.98;60.71;99265.19;3140613;28;19921;-64
2022/08/13 04:09:28;;;;;;;;;;;;;;;21.93;60.92;99270.13;3135559;28;19930;-64
2022/08/13 04:11:01;;;;;;;;;;;;;;;21.88;60.90;99269.72;3129060;28;19924;-64
2022/08/13 04:12:34;;;;;;;;;;;;;;;21.83;61.23;99275.50;3145528;28;19950;-64
2022/08/13 04:14:06;;;;;;;;;;;;;;;21.76;61.73;99279.75;3143507;28;19924;-64
2022/08/13 04:15:37;;;;;;;;;;;;;;;21.71;62.13;99274.06;3133207;28;20336;-62
2022/08/13 04:17:10;;;;;;;;;;;;;;;21.69;61.90;99284.00;3144090;28;19920;-64
2022/08/13 04:18:41;;;;;;;;;;;;;;;21.69;61.97;99276.06;3146126;28;19998;-64
2022/08/13 04:20:13;;;;;;;;;;;;;;;21.70;61.83;99269.75;3146775;28;20014;-64
2022/08/13 04:21:45;;;;;;;;;;;;;;;21.75;61.63;99278.09;3143130;28;19921;-64
2022/08/13 04:23:17;;;;;;;;;;;;;;;21.79;61.42;99276.78;3128927;28;19929;-64
2022/08/13 04:24:50;;;;;;;;;;;;;;;21.80;61.30;99273.19;3142592;28;19925;-64
2022/08/13 04:26:23;;;;;;;;;;;;;;;21.80;61.18;99273.19;3143220;28;19950;-64
2022/08/13 04:27:58;;;;;;;;;;;;;;;21.83;60.95;99270.22;3143454;28;19935;-64
2022/08/13 04:29:30;;;;;;;;;;;;;;;21.89;60.74;99268.75;3135263;28;19944;-63
2022/08/13 04:31:00;;;;;;;;;;;;;;;21.91;60.56;99275.56;3143936;28;20272;-64
2022/08/13 04:32:40;;;;;;;;;;;;;;;21.94;60.18;99277.91;3143560;28;19920;-64
2022/08/13 04:34:10;;;;;;;;;;;;;;;22.00;60.19;99271.97;3143833;28;19920;-64
2022/08/13 04:35:44;;;;;;;;;;;;;;;22.02;60.01;99275.31;3144545;28;19943;-64
2022/08/13 04:37:16;;;;;;;;;;;;;;;22.07;59.73;99271.38;3138770;28;20312;-64
2022/08/13 04:38:48;;;;;;;;;;;;;;;22.13;59.27;99281.34;3140949;28;19921;-64
2022/08/13 04:40:19;;;;;;;;;;;;;;;22.15;59.56;99271.41;3145934;28;19920;-64
2022/08/13 04:41:51;;;;;;;;;;;;;;;22.16;59.45;99273.09;3135759;28;19920;-65
2022/08/13 04:43:24;;;;;;;;;;;;;;;22.18;59.10;99269.31;3145731;28;20003;-64
2022/08/13 04:44:55;;;;;;;;;;;;;;;22.22;59.10;99275.97;3135770;28;19931;-64
2022/08/13 04:46:26;;;;;;;;;;;;;;;22.25;59.11;99277.47;3134633;28;20313;-64
2022/08/13 04:47:59;;;;;;;;;;;;;;;22.26;58.96;99271.19;3141379;28;19924;-65
2022/08/13 04:49:29;;;;;;;;;;;;;;;22.29;58.90;99276.16;3142004;28;19924;-63
2022/08/13 04:51:01;;;;;;;;;;;;;;;22.33;58.58;99272.22;3142137;28;20379;-63
2022/08/13 04:52:32;;;;;;;;;;;;;;;22.33;58.57;99266.94;3140562;28;19921;-63
2022/08/13 04:54:04;;;;;;;;;;;;;;;22.38;58.34;99277.88;3142732;28;19934;-63
2022/08/13 04:55:37;;;;;;;;;;;;;;;22.41;58.08;99272.25;3143567;28;19935;-63
2022/08/13 04:57:07;;;;;;;;;;;;;;;22.47;57.92;99278.75;3144234;28;20015;-63
2022/08/13 04:58:41;;;;;;;;;;;;;;;22.51;57.80;99276.59;3144822;28;19928;-63
2022/08/13 05:00:12;;;;;;;;;;;;;;;22.55;57.81;99272.66;3132620;28;19932;-64
2022/08/13 05:01:43;;;;;;;;;;;;;;;22.59;58.09;99274.00;3147123;28;19920;-63
2022/08/13 05:03:15;;;;;;;;;;;;;;;22.61;57.99;99264.06;3146070;28;19921;-63
2022/08/13 05:04:46;;;;;;;;;;;;;;;22.65;57.65;99270.69;3146695;28;19925;-63
2022/08/13 05:06:19;;;;;;;;;;;;;;;22.71;57.51;99272.72;3135199;28;19958;-63
2022/08/13 05:07:52;;;;;;;;;;;;;;;22.76;58.32;99266.94;3139404;28;19925;-64
2022/08/13 05:09:24;;;;;;;;;;;;;;;22.78;57.99;99262.31;3136304;28;19921;-64
2022/08/13 05:10:56;;;;;;;;;;;;;;;22.82;57.86;99267.13;3146025;28;19935;-64
2022/08/13 05:12:27;;;;;;;;;;;;;;;22.87;57.75;99264.81;3140792;28;19924;-64
2022/08/13 05:14:00;;;;;;;;;;;;;;;22.93;57.35;99264.19;3142636;28;19930;-64
2022/08/13 05:15:32;;;;;;;;;;;;;;;23.00;57.35;99268.88;3145948;28;19946;-65
2022/08/13 05:17:04;;;;;;;;;;;;;;;23.05;57.38;99264.72;3145731;28;19924;-65
2022/08/13 05:18:37;;;;;;;;;;;;;;;23.11;57.19;99263.25;3146451;28;20010;-64
2022/08/13 05:20:15;;;;;;;;;;;;;;;23.16;57.58;99269.75;3146734;28;19978;-64
2022/08/13 05:21:46;;;;;;;;;;;;;;;23.22;57.31;99262.94;3138103;28;20361;-64
2022/08/13 05:23:18;;;;;;;;;;;;;;;23.27;57.54;99255.31;3134154;28;19931;-64
2022/08/13 05:24:50;;;;;;;;;;;;;;;23.35;56.92;99252.66;3135681;28;19927;-63
2022/08/13 05:26:21;;;;;;;;;;;;;;;23.41;57.17;99255.66;3141072;28;19959;-64
2022/08/13 05:27:53;;;;;;;;;;;;;;;23.47;56.92;99252.34;3146631;28;19920;-64
2022/08/13 05:29:26;;;;;;;;;;;;;;;23.52;56.66;99253.50;3146986;28;20003;-64
2022/08/13 05:30:57;;;;;;;;;;;;;;;23.59;56.54;99254.50;3136188;28;19921;-64
2022/08/13 05:32:29;;;;;;;;;;;;;;;23.65;56.36;99253.00;3143880;28;19928;-65
2022/08/13 05:34:03;;;;;;;;;;;;;;;23.74;56.34;99251.19;3140238;28;19991;-64
2022/08/13 05:35:33;;;;;;;;;;;;;;;23.81;56.19;99253.03;3141042;28;19935;-63
2022/08/13 05:37:07;;;;;;;;;;;;;;;23.88;56.22;99255.03;3141713;28;19924;-63
2022/08/13 05:38:39;;;;;;;;;;;;;;;23.96;55.99;99253.19;3142793;28;20004;-64
2022/08/13 05:40:11;;;;;;;;;;;;;;;24.04;55.70;99255.81;3140011;28;20421;-64
2022/08/13 05:41:43;;;;;;;;;;;;;;;24.12;56.03;99254.97;3133561;28;19920;-65
2022/08/13 05:43:15;;;;;;;;;;;;;;;24.20;55.48;99251.47;3144813;28;19924;-65
2022/08/13 05:44:49;;;;;;;;;;;;;;;24.30;55.42;99252.09;3143119;28;19998;-65
2022/08/13 05:46:24;;;;;;;;;;;;;;;24.40;55.02;99246.56;3134466;28;19987;-65
2022/08/13 05:47:55;;;;;;;;;;;;;;;24.49;54.93;99242.91;3138810;28;19924;-65
2022/08/13 05:49:27;;;;;;;;;;;;;;;24.57;54.96;99248.22;3136961;28;19924;-64
2022/08/13 05:51:00;;;;;;;;;;;;;;;24.64;54.32;99245.69;3136838;28;19921;-64
2022/08/13 05:52:34;;;;;;;;;;;;;;;24.72;54.04;99241.16;3135104;28;19932;-64
2022/08/13 05:54:07;;;;;;;;;;;;;;;24.80;53.99;99242.13;3137495;28;19925;-64
2022/08/13 05:55:40;;;;;;;;;;;;;;;24.87;53.96;99238.56;3136633;28;20221;-64
2022/08/13 05:57:11;;;;;;;;;;;;;;;24.86;53.31;99226.28;3140668;28;19924;-63
2022/08/13 05:58:43;;;;;;;;;;;;;;;25.00;53.14;99243.34;3148762;28;19921;-64
2022/08/13 06:03:54;;;;;;;;;;;;;;;25.28;52.42;99237.53;3144385;28;19920;-63
2022/08/13 06:05:25;;;;;;;;;;;;;;;25.37;52.51;99236.44;3144686;28;20028;-63
2022/08/13 06:06:56;;;;;;;;;;;;;;;25.48;52.27;99245.88;3145062;28;19947;-63
2022/08/13 06:08:29;;;;;;;;;;;;;;;25.56;51.52;99235.97;3137029;28;19928;-63
2022/08/13 06:10:00;;;;;;;;;;;;;;;25.64;50.62;99243.06;3138280;28;19986;-64
2022/08/13 06:11:32;;;;;;;;;;;;;;;25.75;50.75;99245.31;3142480;28;19924;-64
2022/08/13 06:13:04;;;;;;;;;;;;;;;25.85;50.51;99243.25;3143678;28;19932;-65
2022/08/13 06:14:36;;;;;;;;;;;;;;;25.93;49.56;99238.84;3137711;28;19924;-64
2022/08/13 06:16:10;;;;;;;;;;;;;;;26.01;49.88;99242.25;3145488;28;20003;-65
2022/08/13 06:17:42;;;;;;;;;;;;;;;26.13;50.16;99247.97;3145848;28;19981;-63
2022/08/13 06:19:14;;;;;;;;;;;;;;;26.23;49.72;99245.03;3146076;28;19920;-64
2022/08/13 06:20:49;;;;;;;;;;;;;;;26.30;49.59;99245.97;3145897;28;20018;-63
2022/08/13 06:22:21;;;;;;;;;;;;;;;26.36;48.75;99242.56;3136489;28;19928;-63
2022/08/13 06:23:53;;;;;;;;;;;;;;;26.44;48.13;99241.59;3137742;28;20011;-62
2022/08/13 06:25:25;;;;;;;;;;;;;;;26.50;48.53;99233.75;3148101;28;19920;-63
2022/08/13 06:26:59;;;;;;;;;;;;;;;26.57;48.23;99238.34;3136742;28;19921;-64
2022/08/13 06:28:32;;;;;;;;;;;;;;;26.59;47.07;99230.94;3136588;28;19928;-64
2022/08/13 06:30:04;;;;;;;;;;;;;;;26.53;47.06;99230.69;3143669;28;20583;-66
2022/08/13 06:31:39;;;;;;;;;;;;;;;26.54;46.74;99232.34;3144849;28;19976;-63
2022/08/13 06:33:11;;;;;;;;;;;;;;;26.54;46.74;99232.34;3138616;28;20094;-64
2022/08/13 06:34:43;;;;;;;;;;;;;;;26.55;46.57;99231.31;3136533;28;19924;-65
2022/08/13 06:36:15;;;;;;;;;;;;;;;26.61;46.80;99242.28;3138093;28;19935;-64
2022/08/13 06:37:47;;;;;;;;;;;;;;;26.66;46.62;99229.19;3132466;28;19979;-66
2022/08/13 06:39:19;;;;;;;;;;;;;;;26.76;46.47;99235.06;3137307;28;19932;-66
2022/08/13 06:40:53;;;;;;;;;;;;;;;26.87;46.19;99225.75;3123986;28;20008;-66
2022/08/13 06:42:29;;;;;;;;;;;;;;;26.98;45.76;99233.28;3132931;28;19925;-66
2022/08/13 06:44:02;;;;;;;;;;;;;;;27.05;45.55;99228.00;3133973;28;19932;-65
2022/08/13 06:45:34;;;;;;;;;;;;;;;27.06;45.39;99225.13;3133154;28;20011;-67
2022/08/13 06:47:07;;;;;;;;;;;;;;;27.12;46.02;99226.19;3134017;28;19924;-68
2022/08/13 06:48:39;;;;;;;;;;;;;;;27.22;46.10;99216.06;3133324;28;20055;-66
2022/08/13 06:50:11;;;;;;;;;;;;;;;27.32;46.17;99216.56;3135291;28;19982;-67
2022/08/13 06:51:43;;;;;;;;;;;;;;;27.41;45.69;99211.91;3132989;28;19932;-66
2022/08/13 06:53:15;;;;;;;;;;;;;;;27.45;44.45;99222.06;3133119;28;19921;-67
2022/08/13 06:54:48;;;;;;;;;;;;;;;27.47;44.18;99221.03;3136265;28;19920;-66
2022/08/13 06:56:21;;;;;;;;;;;;;;;27.51;44.54;99215.09;3134154;28;19932;-67
2022/08/13 06:57:53;;;;;;;;;;;;;;;27.60;44.30;99221.16;3134862;28;19931;-66
2022/08/13 06:59:25;;;;;;;;;;;;;;;27.63;44.69;99218.91;3132743;28;19924;-65
2022/08/13 07:00:58;;;;;;;;;;;;;;;27.71;44.69;99214.41;3134725;28;19924;-65
2022/08/13 07:02:32;;;;;;;;;;;;;;;27.73;43.81;99212.38;3137519;28;20019;-65
2022/08/13 07:04:05;;;;;;;;;;;;;;;27.81;44.02;99212.28;3134824;28;19928;-65
2022/08/13 07:05:38;;;;;;;;;;;;;;;27.86;43.64;99209.81;3136543;28;20004;-64
2022/08/13 07:07:10;;;;;;;;;;;;;;;27.87;43.42;99212.31;3132534;28;19971;-64
2022/08/13 07:08:42;;;;;;;;;;;;;;;27.85;42.96;99216.22;3140023;28;19931;-64
2022/08/13 07:10:14;;;;;;;;;;;;;;;27.88;43.62;99213.97;3134600;28;19921;-63
2022/08/13 07:11:46;;;;;;;;;;;;;;;27.93;43.40;99215.25;3132995;28;19960;-64
2022/08/13 07:13:18;;;;;;;;;;;;;;;27.95;43.36;99210.50;3133360;28;20411;-64
2022/08/13 07:14:48;;;;;;;;;;;;;;;27.92;43.44;99216.25;3134895;28;20028;-65
2022/08/13 07:16:21;;;;;;;;;;;;;;;27.94;43.48;99214.22;3136038;28;20047;-64
2022/08/13 07:17:55;;;;;;;;;;;;;;;27.98;43.57;99213.63;3133922;28;21299;-65
2022/08/13 07:19:28;;;;;;;;;;;;;;;28.03;43.20;99213.03;3129969;28;19921;-65
2022/08/13 07:21:00;;;;;;;;;;;;;;;28.04;42.69;99217.34;3134441;28;19932;-65
2022/08/13 07:22:33;;;;;;;;;;;;;;;28.06;43.10;99215.31;3133636;28;19921;-65
2022/08/13 07:24:05;;;;;;;;;;;;;;;28.03;42.86;99213.03;3134031;28;19924;-65
2022/08/13 07:25:38;;;;;;;;;;;;;;;28.01;42.98;99217.75;3134643;28;20003;-65
2022/08/13 07:27:10;;;;;;;;;;;;;;;28.05;42.66;99219.03;3132888;28;20422;-66
2022/08/13 07:28:44;;;;;;;;;;;;;;;28.10;42.98;99216.56;3134639;28;19989;-66
2022/08/13 07:30:16;;;;;;;;;;;;;;;28.13;42.49;99209.00;3130659;28;19925;-65
2022/08/13 07:31:48;;;;;;;;;;;;;;;28.11;42.45;99203.00;3132863;28;20262;-65
2022/08/13 07:33:21;;;;;;;;;;;;;;;28.12;42.62;99209.16;3134100;28;20087;-66
2022/08/13 07:34:53;;;;;;;;;;;;;;;28.12;41.83;99204.63;3134334;28;19924;-66
2022/08/13 07:36:27;;;;;;;;;;;;;;;28.10;42.46;99203.19;3135918;28;19926;-67
2022/08/13 07:37:59;;;;;;;;;;;;;;;28.03;42.54;99205.81;3135664;28;19944;-66
2022/08/13 07:39:31;;;;;;;;;;;;;;;28.02;42.32;99203.38;3131709;28;20007;-65
2022/08/13 07:41:02;;;;;;;;;;;;;;;27.99;42.52;99199.22;3133428;28;19936;-66
2022/08/13 07:42:38;;;;;;;;;;;;;;;28.07;42.35;99208.94;3134169;28;19921;-65
2022/08/13 07:44:13;;;;;;;;;;;;;;;28.17;42.44;99201.38;3133769;28;20372;-65
2022/08/13 07:45:46;;;;;;;;;;;;;;;28.26;42.17;99202.88;3132076;28;20442;-65
2022/08/13 07:47:19;;;;;;;;;;;;;;;28.27;42.16;99203.69;3131417;28;19925;-66
2022/08/13 07:48:52;;;;;;;;;;;;;;;28.30;41.92;99204.13;3137208;28;19967;-66
2022/08/13 07:50:25;;;;;;;;;;;;;;;28.38;41.89;99200.47;3135079;28;19931;-66
2022/08/13 07:51:57;;;;;;;;;;;;;;;28.48;42.08;99208.16;3135639;28;19921;-65
2022/08/13 07:53:29;;;;;;;;;;;;;;;28.63;41.92;99210.69;3134631;28;19924;-66
2022/08/13 07:55:01;;;;;;;;;;;;;;;28.77;42.07;99193.63;3133568;28;19935;-65
2022/08/13 07:56:33;;;;;;;;;;;;;;;28.88;41.40;99205.63;3134720;28;19920;-65
2022/08/13 07:58:05;;;;;;;;;;;;;;;28.92;41.29;99183.56;3129790;28;19932;-64
2022/08/13 07:59:37;;;;;;;;;;;;;;;29.10;41.24;99191.03;3135112;28;20420;-64
2022/08/13 08:01:11;;;;;;;;;;;;;;;29.23;41.16;99184.88;3132058;28;19920;-67
2022/08/13 08:02:43;;;;;;;;;;;;;;;29.39;40.67;99189.00;3133350;28;20407;-64
2022/08/13 08:04:16;;;;;;;;;;;;;;;29.50;40.23;99188.41;3131034;28;19928;-66
2022/08/13 08:05:48;;;;;;;;;;;;;;;29.58;40.10;99188.19;3137818;28;19921;-66
2022/08/13 08:07:20;;;;;;;;;;;;;;;29.69;39.63;99182.19;3144386;28;19935;-65
2022/08/13 08:08:53;;;;;;;;;;;;;;;29.83;40.18;99182.19;3135870;28;19924;-67
2022/08/13 08:10:24;;;;;;;;;;;;;;;29.97;40.17;99181.16;3134743;28;19931;-66
2022/08/13 08:13:46;;;;;;;;;;;;;;;30.15;38.96;99173.25;3143775;28;20010;-66
2022/08/13 08:15:19;;;;;;;;;;;;;;;30.20;38.92;99177.13;3141194;28;20007;-66
2022/08/13 08:16:51;;;;;;;;;;;;;;;30.18;38.44;99182.75;3144957;28;20356;-66